Time;durP1;ratioP1;P1;durP2;ratioP2;P2;SDS_P1;SDS_P2;PMS_P1;PMS_P2;Temp;Humidity;BMP_temperature;BMP_pressure;BME280_temperature;BME280_humidity;BME280_pressure;Samples;Min_cycle;Max_cycle;Signal;HPM_P1;HPM_P2
2021/12/24 00:01:57;;;;;;;17.33;8.50;;;;;;;-1.80;70.54;94940.97;5006246;28;20196;-74
2021/12/24 00:04:26;;;;;;;17.75;9.77;;;;;;;-2.06;70.89;94933.66;5032083;28;20220;-74
2021/12/24 00:06:55;;;;;;;22.33;8.57;;;;;;;-1.86;70.46;94925.97;5031970;28;20236;-73
2021/12/24 00:09:25;;;;;;;19.02;8.80;;;;;;;-1.75;69.77;94909.16;5031154;28;20200;-73
2021/12/24 00:11:57;;;;;;;19.40;8.90;;;;;;;-1.77;69.94;94915.75;5031274;28;20207;-73
2021/12/24 00:14:26;;;;;;;121.32;38.45;;;;;;;-1.49;70.01;94919.06;5032238;28;20196;-74
2021/12/24 00:16:56;;;;;;;43.63;17.95;;;;;;;-1.35;69.42;94910.75;5022740;28;20205;-74
2021/12/24 00:19:37;;;;;;;48.70;19.40;;;;;;;-1.36;69.35;94909.13;5029303;28;20196;-73
2021/12/24 00:22:40;;;;;;;28.40;12.23;;;;;;;-1.30;69.19;94906.31;5028564;28;20697;-72
2021/12/24 00:36:06;;;;;;;17.70;9.82;;;;;;;-1.24;70.44;94917.81;5031348;28;20203;-73
2021/12/24 00:38:35;;;;;;;24.33;9.75;;;;;;;-1.16;69.76;94922.69;5031773;28;20235;-73
2021/12/24 00:41:02;;;;;;;24.90;9.52;;;;;;;-1.14;69.80;94928.56;5030376;28;20239;-72
2021/12/24 00:43:30;;;;;;;21.83;10.68;;;;;;;-1.25;70.13;94916.22;5031519;28;20204;-73
2021/12/24 00:45:57;;;;;;;23.38;9.90;;;;;;;-1.35;69.59;94916.06;5022804;28;20304;-72
2021/12/24 00:48:24;;;;;;;21.45;9.45;;;;;;;-1.42;70.38;94908.28;5026986;28;20757;-73
2021/12/24 00:51:06;;;;;;;49.38;16.95;;;;;;;-1.49;70.33;94873.94;5031415;28;20200;-73
2021/12/24 00:56:20;;;;;;;56.50;21.05;;;;;;;-1.83;70.74;94883.03;5031549;28;20215;-73
2021/12/24 00:58:47;;;;;;;28.15;12.90;;;;;;;-2.07;70.88;94876.31;5031745;28;20212;-73
2021/12/24 01:01:16;;;;;;;21.95;10.93;;;;;;;-2.00;72.38;94868.97;5033417;28;20200;-74
2021/12/24 01:03:43;;;;;;;18.98;8.70;;;;;;;-1.91;72.26;94875.47;5034501;28;20253;-74
2021/12/24 01:06:11;;;;;;;28.77;11.05;;;;;;;-1.93;71.92;94872.28;5033372;28;20209;-73
2021/12/24 01:08:40;;;;;;;32.28;10.95;;;;;;;-1.80;71.15;94877.25;5031449;28;20580;-74
2021/12/24 01:11:09;;;;;;;18.50;10.38;;;;;;;-1.77;72.01;94860.81;5030814;28;20274;-74
2021/12/24 01:13:37;;;;;;;16.48;8.20;;;;;;;-1.63;70.17;94862.06;5030683;28;20211;-74
2021/12/24 01:16:13;;;;;;;19.27;8.85;;;;;;;-1.52;72.04;94881.59;5031240;28;20200;-73
2021/12/24 01:18:49;;;;;;;27.80;10.23;;;;;;;-1.42;71.56;94870.28;5030077;28;20211;-74
2021/12/24 01:21:28;;;;;;;28.02;10.35;;;;;;;-1.39;70.46;94861.84;5028170;28;20198;-73
2021/12/24 01:24:00;;;;;;;51.03;22.38;;;;;;;-1.39;70.55;94854.69;5030907;28;20254;-73
2021/12/24 01:26:37;;;;;;;22.58;9.80;;;;;;;-1.36;71.51;94846.19;5031037;28;20210;-73
2021/12/24 01:29:33;;;;;;;16.50;8.55;;;;;;;-1.32;70.91;94844.66;5030783;28;20210;-73
2021/12/24 01:40:23;;;;;;;25.63;10.30;;;;;;;-2.51;74.36;94852.28;5030443;28;20207;-75
2021/12/24 01:42:51;;;;;;;28.30;10.40;;;;;;;-2.38;73.22;94846.66;5030872;28;20204;-73
2021/12/24 01:45:22;;;;;;;26.70;9.55;;;;;;;-2.33;73.45;94846.75;5026306;28;20220;-73
2021/12/24 01:47:51;;;;;;;21.30;8.40;;;;;;;-2.37;73.24;94842.16;5021801;28;20695;-74
2021/12/24 01:50:20;;;;;;;16.77;8.48;;;;;;;-2.25;74.47;94842.88;5030360;28;20204;-73
2021/12/24 01:52:50;;;;;;;26.10;10.20;;;;;;;-2.28;74.56;94854.75;5030521;28;20626;-74
2021/12/24 01:55:19;;;;;;;23.55;10.27;;;;;;;-2.21;73.44;94846.66;5016892;28;20242;-74
2021/12/24 01:57:48;;;;;;;21.02;10.40;;;;;;;-2.23;73.09;94841.59;5030828;28;20257;-74
2021/12/24 02:00:19;;;;;;;22.95;10.43;;;;;;;-2.24;73.80;94833.88;5030119;28;20200;-72
2021/12/24 02:02:48;;;;;;;20.02;9.25;;;;;;;-2.02;73.35;94833.91;5030433;28;20196;-74
2021/12/24 02:05:15;;;;;;;22.15;10.55;;;;;;;-2.00;72.92;94831.81;5029358;28;20228;-74
2021/12/24 02:07:43;;;;;;;23.05;10.85;;;;;;;-1.94;72.85;94806.97;5030328;28;20579;-74
2021/12/24 02:10:14;;;;;;;32.35;13.68;;;;;;;-1.88;72.90;94805.97;5030588;28;20204;-73
2021/12/24 02:12:43;;;;;;;24.30;9.43;;;;;;;-2.33;75.81;94814.13;5030501;28;20199;-74
2021/12/24 02:15:21;;;;;;;26.40;11.93;;;;;;;-2.23;74.88;94804.44;5028487;28;20402;-73
2021/12/24 02:18:03;;;;;;;27.08;11.40;;;;;;;-2.10;75.18;94802.50;5029945;28;20278;-73
2021/12/24 02:28:46;;;;;;;29.30;13.00;;;;;;;-2.29;74.34;94789.50;5030447;28;20312;-73
2021/12/24 02:31:15;;;;;;;39.60;18.10;;;;;;;-2.11;73.79;94792.94;5033676;28;20205;-73
2021/12/24 02:33:43;;;;;;;33.53;13.50;;;;;;;-2.02;73.92;94783.50;5033652;28;20224;-73
2021/12/24 02:36:12;;;;;;;25.40;12.18;;;;;;;-2.15;75.05;94764.22;5033599;28;20204;-73
2021/12/24 02:38:40;;;;;;;24.35;11.05;;;;;;;-2.03;74.28;94771.25;5021038;28;20215;-73
2021/12/24 02:41:08;;;;;;;28.90;12.35;;;;;;;-2.07;73.37;94759.56;5033797;28;20233;-73
2021/12/24 02:43:36;;;;;;;19.42;7.63;;;;;;;-2.39;73.70;94757.53;5030480;28;20200;-73
2021/12/24 02:46:09;;;;;;;21.33;9.90;;;;;;;-2.54;73.21;94766.06;5012563;28;20656;-73
2021/12/24 02:49:04;;;;;;;13.98;6.35;;;;;;;-2.85;73.89;94737.47;5031278;28;20232;-73
2021/12/24 02:54:20;;;;;;;13.85;6.30;;;;;;;-3.07;74.69;94755.94;5033742;28;20211;-73
2021/12/24 02:56:51;;;;;;;25.48;10.32;;;;;;;-3.16;76.19;94746.78;5034232;28;20573;-73
2021/12/24 02:59:25;;;;;;;25.90;9.77;;;;;;;-3.05;76.52;94753.88;5034201;28;20219;-73
2021/12/24 03:01:52;;;;;;;17.63;9.75;;;;;;;-2.93;77.64;94736.03;5008199;28;20196;-73
2021/12/24 03:04:20;;;;;;;27.02;8.60;;;;;;;-3.04;75.52;94734.28;5033484;28;20223;-74
2021/12/24 03:06:51;;;;;;;27.17;11.85;;;;;;;-3.04;76.48;94728.97;5032963;28;20655;-73
2021/12/24 03:09:20;;;;;;;18.13;8.40;;;;;;;-3.31;76.51;94738.59;5033445;28;20251;-73
2021/12/24 03:11:51;;;;;;;19.65;9.38;;;;;;;-3.22;77.74;94739.78;5033813;28;20211;-73
2021/12/24 03:14:20;;;;;;;17.77;7.28;;;;;;;-3.47;77.12;94739.34;5033047;28;20664;-73
2021/12/24 03:16:52;;;;;;;24.35;8.77;;;;;;;-3.67;77.98;94724.69;5032777;28;20200;-72
2021/12/24 03:19:24;;;;;;;20.60;9.15;;;;;;;-3.54;78.97;94734.19;5033742;28;20299;-72
2021/12/24 03:21:57;;;;;;;16.10;7.50;;;;;;;-3.50;77.60;94729.22;5029827;28;20185;-74
2021/12/24 03:24:36;;;;;;;8.57;6.30;;;;;;;-3.71;77.54;94744.75;5033061;28;20705;-75
2021/12/24 03:27:06;;;;;;;23.25;9.70;;;;;;;-3.88;78.60;94714.78;5033129;28;20204;-74
2021/12/24 03:29:34;;;;;;;28.20;8.88;;;;;;;-3.67;79.92;94735.28;5032712;28;20727;-74
2021/12/24 03:32:02;;;;;;;26.90;9.02;;;;;;;-3.64;78.22;94724.22;5033205;28;20586;-74
2021/12/24 03:34:30;;;;;;;18.02;8.43;;;;;;;-3.48;77.41;94721.84;5032955;28;20575;-74
2021/12/24 03:36:58;;;;;;;23.45;9.77;;;;;;;-3.50;77.35;94731.88;5032689;28;20204;-74
2021/12/24 03:39:26;;;;;;;19.95;8.95;;;;;;;-3.66;78.68;94730.78;5032580;28;20204;-73
2021/12/24 03:41:53;;;;;;;19.02;8.32;;;;;;;-3.40;77.76;94724.09;5031580;28;20243;-72
2021/12/24 03:44:29;;;;;;;21.75;8.40;;;;;;;-3.33;77.97;94730.06;5033100;28;20209;-73
2021/12/24 03:47:02;;;;;;;17.15;9.18;;;;;;;-3.33;76.21;94714.19;5019148;28;20231;-74
2021/12/24 03:49:35;;;;;;;18.00;8.90;;;;;;;-3.34;76.66;94709.94;5031555;28;20259;-74
2021/12/24 03:52:18;;;;;;;18.05;9.77;;;;;;;-3.25;75.86;94711.13;5032895;28;20291;-73
2021/12/24 03:54:58;;;;;;;20.92;8.68;;;;;;;-3.40;77.15;94716.16;5032843;28;20188;-74
2021/12/24 03:57:27;;;;;;;21.15;8.75;;;;;;;-3.38;76.92;94701.66;5032901;28;20274;-73
2021/12/24 03:59:55;;;;;;;24.08;10.63;;;;;;;-3.27;76.94;94707.91;5032732;28;20197;-73
2021/12/24 04:02:22;;;;;;;24.90;11.00;;;;;;;-3.41;76.50;94704.78;5032123;28;20617;-73
2021/12/24 04:04:50;;;;;;;22.23;9.13;;;;;;;-3.63;77.16;94691.44;5032563;28;20277;-74
2021/12/24 04:07:19;;;;;;;23.20;11.18;;;;;;;-3.52;77.98;94696.91;5032185;28;20287;-74
2021/12/24 04:09:55;;;;;;;24.85;10.27;;;;;;;-3.33;77.40;94703.59;5031991;28;20663;-73
2021/12/24 04:12:23;;;;;;;26.35;9.00;;;;;;;-3.31;77.44;94697.03;5032608;28;20188;-74
2021/12/24 04:14:52;;;;;;;29.95;12.77;;;;;;;-2.95;77.88;94713.47;5032416;28;20211;-73
2021/12/24 04:17:19;;;;;;;24.02;11.38;;;;;;;-2.87;76.46;94711.22;5032129;28;20710;-73
2021/12/24 04:25:18;;;;;;;29.48;11.68;;;;;;;-3.28;77.65;94701.03;5032020;28;20666;-73
2021/12/24 04:27:45;;;;;;;26.65;11.15;;;;;;;-3.34;77.33;94696.69;5032321;28;20646;-73
2021/12/24 04:30:16;;;;;;;20.42;10.43;;;;;;;-3.30;77.65;94697.81;5031791;28;20209;-74
2021/12/24 04:32:55;;;;;;;24.40;10.07;;;;;;;-3.15;77.66;94715.81;5018150;28;20314;-74
2021/12/24 04:35:38;;;;;;;25.45;12.50;;;;;;;-3.41;78.18;94696.03;5032036;28;20223;-73
2021/12/24 04:51:54;;;;;;;23.83;8.85;;;;;;;-3.43;78.82;94692.84;5030009;28;20675;-74
2021/12/24 05:02:58;;;;;;;22.73;9.90;;;;;;;-3.39;79.17;94709.81;5031061;28;20196;-74
2021/12/24 05:05:36;;;;;;;21.50;10.48;;;;;;;-3.34;79.72;94696.69;5009230;28;20203;-74
2021/12/24 05:10:49;;;;;;;27.60;11.10;;;;;;;-3.26;78.45;94710.31;5031092;28;20212;-73
2021/12/24 05:13:18;;;;;;;37.72;12.02;;;;;;;-3.02;77.89;94720.78;5031168;28;20655;-74
2021/12/24 05:15:48;;;;;;;24.52;10.43;;;;;;;-2.96;77.69;94704.72;5031060;28;20258;-73
2021/12/24 05:23:43;;;;;;;15.55;7.55;;;;;;;-3.04;77.55;94696.38;5031085;28;20219;-74
2021/12/24 05:26:14;;;;;;;16.05;8.82;;;;;;;-3.04;77.55;94718.38;5031104;28;20208;-73
2021/12/24 05:28:41;;;;;;;27.00;10.07;;;;;;;-3.36;77.65;94719.94;5030760;28;20216;-74
2021/12/24 05:31:09;;;;;;;18.35;8.38;;;;;;;-3.17;79.52;94702.81;5004322;28;20579;-74
2021/12/24 05:33:36;;;;;;;24.42;11.15;;;;;;;-3.13;77.99;94713.69;5030746;28;20258;-74
2021/12/24 05:36:04;;;;;;;13.07;6.82;;;;;;;-3.39;77.84;94720.41;5030603;28;20211;-73
2021/12/24 05:38:32;;;;;;;20.63;7.85;;;;;;;-3.28;78.18;94690.44;5030802;28;20215;-74
2021/12/24 05:40:59;;;;;;;15.77;7.70;;;;;;;-3.27;77.57;94707.91;5030045;28;20228;-74
2021/12/24 05:43:28;;;;;;;20.25;9.52;;;;;;;-3.03;78.19;94712.03;5030747;28;20692;-74
2021/12/24 05:45:55;;;;;;;22.42;9.65;;;;;;;-3.08;77.82;94711.94;5022275;28;20213;-74
2021/12/24 05:48:23;;;;;;;20.73;8.85;;;;;;;-3.29;77.10;94699.44;5026263;28;20286;-73
2021/12/24 05:50:50;;;;;;;19.30;10.18;;;;;;;-3.24;78.26;94702.16;5030806;28;20215;-73
2021/12/24 05:53:17;;;;;;;10.10;5.55;;;;;;;-3.07;76.41;94668.53;5029771;28;20203;-74
2021/12/24 05:55:45;;;;;;;19.55;8.68;;;;;;;-2.87;77.82;94692.66;5030592;28;20211;-74
2021/12/24 05:58:13;;;;;;;23.10;8.18;;;;;;;-2.81;76.15;94684.78;5030749;28;20204;-73
2021/12/24 06:00:43;;;;;;;21.33;9.27;;;;;;;-2.75;76.92;94652.03;5030480;28;20203;-75
2021/12/24 06:03:11;;;;;;;22.52;9.70;;;;;;;-2.82;75.27;94662.00;5030837;28;20233;-74
2021/12/24 06:05:39;;;;;;;9.65;4.47;;;;;;;-2.89;74.32;94657.69;5037078;28;20598;-74
2021/12/24 06:08:06;;;;;;;14.85;6.78;;;;;;;-2.73;73.52;94652.59;5032813;28;20664;-73
2021/12/24 06:10:34;;;;;;;9.63;4.90;;;;;;;-2.54;71.87;94657.34;5028368;28;20553;-73
2021/12/24 06:13:02;;;;;;;14.20;6.93;;;;;;;-2.55;72.11;94671.66;5037034;28;20215;-73
2021/12/24 06:15:29;;;;;;;16.42;7.75;;;;;;;-2.40;73.42;94670.25;5037099;28;20200;-73
2021/12/24 06:17:59;;;;;;;15.63;8.75;;;;;;;-2.44;73.05;94666.47;5037163;28;20541;-73
2021/12/24 06:20:28;;;;;;;18.92;9.82;;;;;;;-2.28;73.57;94661.13;5034694;28;20204;-73
2021/12/24 06:22:55;;;;;;;20.65;9.40;;;;;;;-1.98;72.31;94667.84;5036221;28;20690;-73
2021/12/24 06:25:23;;;;;;;20.33;9.13;;;;;;;-1.94;71.17;94675.06;5036682;28;20725;-73
2021/12/24 06:27:50;;;;;;;23.70;9.45;;;;;;;-1.80;71.13;94691.41;5036833;28;20624;-72
2021/12/24 06:30:17;;;;;;;21.33;9.50;;;;;;;-0.96;81.32;94686.34;5036351;28;20232;-72
2021/12/24 06:32:44;;;;;;;36.42;18.65;;;;;;;0.76;78.56;94701.53;5040805;28;20216;-73
2021/12/24 06:35:13;;;;;;;31.50;13.50;;;;;;;-0.19;70.12;94696.41;5042026;28;20200;-72
2021/12/24 06:37:42;;;;;;;29.38;9.40;;;;;;;-1.01;69.46;94718.22;5040666;28;20231;-72
2021/12/24 06:40:09;;;;;;;25.83;11.65;;;;;;;-1.19;71.14;94708.75;5021681;28;20608;-72
2021/12/24 06:42:36;;;;;;;23.20;10.85;;;;;;;-0.98;70.60;94730.19;5036330;28;20238;-71
2021/12/24 06:45:04;;;;;;;25.40;10.93;;;;;;;-0.76;69.11;94729.03;5035019;28;20207;-72
2021/12/24 06:47:30;;;;;;;14.98;7.57;;;;;;;-0.69;68.39;94723.53;5025220;28;20228;-72
2021/12/24 06:49:58;;;;;;;22.27;11.02;;;;;;;-0.51;68.60;94719.63;5036541;28;20234;-72
2021/12/24 06:52:26;;;;;;;26.00;11.20;;;;;;;-0.42;68.32;94707.47;5030364;28;20193;-72
2021/12/24 06:54:54;;;;;;;19.20;9.05;;;;;;;-0.33;67.75;94705.91;5029139;28;20207;-72
2021/12/24 06:57:23;;;;;;;20.80;9.45;;;;;;;-0.47;66.08;94683.50;5024838;28;20208;-71
2021/12/24 06:59:50;;;;;;;17.88;7.80;;;;;;;-0.32;66.71;94694.22;5019616;28;20212;-73
2021/12/24 07:02:17;;;;;;;18.05;7.53;;;;;;;-0.08;65.87;94683.94;5017990;28;20197;-73
2021/12/24 07:04:44;;;;;;;15.75;8.00;;;;;;;-0.35;64.93;94694.72;5018050;28;20200;-72
2021/12/24 07:07:11;;;;;;;15.63;7.47;;;;;;;-0.27;65.59;94686.25;5016548;28;20201;-73
2021/12/24 07:09:42;;;;;;;11.65;6.25;;;;;;;-0.20;64.72;94684.16;5015099;28;20233;-73
2021/12/24 07:12:11;;;;;;;19.35;9.27;;;;;;;-0.16;65.02;94695.91;5016752;28;20189;-73
2021/12/24 07:14:39;;;;;;;25.15;8.07;;;;;;;-0.03;65.25;94668.81;5015565;28;20228;-71
2021/12/24 07:17:06;;;;;;;14.48;6.97;;;;;;;-0.16;64.11;94690.59;5013008;28;20228;-72
2021/12/24 07:19:33;;;;;;;16.90;8.13;;;;;;;-0.17;65.42;94672.22;5015057;28;20603;-72
2021/12/24 07:22:00;;;;;;;14.35;6.45;;;;;;;-0.14;64.24;94698.31;5012781;28;20236;-72
2021/12/24 07:24:27;;;;;;;10.82;4.40;;;;;;;0.04;63.99;94659.78;5027728;28;20283;-74
2021/12/24 07:26:56;;;;;;;10.38;4.38;;;;;;;-0.01;63.48;94672.03;5009139;28;20209;-73
2021/12/24 07:29:23;;;;;;;10.45;3.70;;;;;;;-0.20;64.22;94678.03;5012783;28;20579;-74
2021/12/24 07:31:50;;;;;;;14.75;6.03;;;;;;;-0.21;63.87;94661.28;5013466;28;20283;-74
2021/12/24 07:34:17;;;;;;;14.40;5.10;;;;;;;-0.07;64.18;94678.38;5015583;28;20200;-73
2021/12/24 07:36:44;;;;;;;25.20;8.43;;;;;;;0.11;63.70;94684.31;5011723;28;20194;-75
2021/12/24 07:39:11;;;;;;;18.17;9.18;;;;;;;0.23;63.13;94672.38;5031172;28;20240;-74
2021/12/24 07:41:38;;;;;;;15.50;7.15;;;;;;;0.57;62.92;94688.69;5032196;28;20231;-75
2021/12/24 07:44:07;;;;;;;10.38;5.78;;;;;;;0.61;61.25;94691.63;5032645;28;20204;-74
2021/12/24 07:46:39;;;;;;;27.45;10.25;;;;;;;0.76;61.52;94682.88;5019869;28;20225;-75
2021/12/24 07:49:18;;;;;;;13.43;6.90;;;;;;;0.64;61.60;94681.25;5028403;28;20221;-74
2021/12/24 07:52:03;;;;;;;13.15;7.97;;;;;;;1.03;61.52;94686.88;5010756;28;20318;-76
2021/12/24 07:54:32;;;;;;;15.68;7.13;;;;;;;1.35;60.38;94683.94;5022737;28;20783;-74
2021/12/24 07:57:00;;;;;;;11.65;5.55;;;;;;;1.09;60.05;94676.22;5014056;28;20255;-74
2021/12/24 07:59:29;;;;;;;12.05;5.43;;;;;;;1.04;60.71;94682.34;5013080;28;20599;-73
2021/12/24 08:01:57;;;;;;;8.10;4.05;;;;;;;0.55;61.22;94680.16;5013262;28;20279;-73
2021/12/24 08:04:24;;;;;;;13.70;6.93;;;;;;;0.62;62.01;94680.72;5027185;28;20204;-74
2021/12/24 08:06:51;;;;;;;17.52;6.55;;;;;;;0.83;61.06;94696.72;5032630;28;20251;-74
2021/12/24 08:09:18;;;;;;;10.73;4.28;;;;;;;0.94;60.56;94677.03;5032563;28;20238;-74
2021/12/24 08:11:45;;;;;;;11.95;5.45;;;;;;;0.90;60.69;94686.63;5032186;28;20749;-74
2021/12/24 08:14:13;;;;;;;6.40;3.45;;;;;;;0.86;60.14;94680.19;5032100;28;20267;-74
2021/12/24 08:16:43;;;;;;;8.63;4.43;;;;;;;0.62;60.57;94680.72;5032248;28;20776;-74
2021/12/24 08:19:10;;;;;;;13.68;5.47;;;;;;;0.60;61.31;94684.69;5032141;28;20683;-74
2021/12/24 08:21:37;;;;;;;5.22;3.20;;;;;;;0.32;61.46;94693.97;5029490;28;20196;-74
2021/12/24 08:24:05;;;;;;;15.10;6.35;;;;;;;0.14;62.40;94679.25;5029061;28;20216;-75
2021/12/24 08:26:32;;;;;;;8.93;4.63;;;;;;;0.38;62.72;94668.94;5009636;28;20640;-74
2021/12/24 08:28:59;;;;;;;6.43;3.80;;;;;;;0.61;61.43;94657.78;5029443;28;20263;-74
2021/12/24 08:31:26;;;;;;;16.45;4.55;;;;;;;0.83;61.30;94667.41;5034138;28;20229;-74
2021/12/24 08:33:54;;;;;;;7.88;4.95;;;;;;;0.87;61.23;94639.16;5032024;28;20540;-73
2021/12/24 08:36:21;;;;;;;6.70;3.53;;;;;;;1.03;60.78;94617.53;5032060;28;20200;-73
2021/12/24 08:38:48;;;;;;;7.85;4.13;;;;;;;1.01;60.32;94629.53;5030543;28;20695;-73
2021/12/24 08:41:15;;;;;;;16.35;5.20;;;;;;;0.86;60.68;94634.88;5008742;28;20233;-73
2021/12/24 08:43:42;;;;;;;14.80;6.55;;;;;;;1.02;61.37;94631.16;5012487;28;20606;-73
2021/12/24 08:46:09;;;;;;;10.15;5.78;;;;;;;0.98;60.81;94620.22;5020339;28;20572;-73
2021/12/24 08:48:36;;;;;;;9.50;4.93;;;;;;;1.05;61.10;94625.28;5013508;28;20234;-73
2021/12/24 08:51:05;;;;;;;13.77;6.60;;;;;;;1.04;61.63;94639.69;5030004;28;20231;-73
2021/12/24 08:53:32;;;;;;;10.10;4.03;;;;;;;1.04;62.21;94650.34;5014898;28;20809;-73
2021/12/24 08:55:59;;;;;;;11.73;4.38;;;;;;;1.11;62.10;94650.88;5016943;28;20196;-73
2021/12/24 08:58:26;;;;;;;11.20;6.00;;;;;;;1.16;61.71;94632.19;5010147;28;20196;-74
2021/12/24 09:00:53;;;;;;;13.32;6.80;;;;;;;1.14;62.20;94654.88;5009888;28;20221;-73
2021/12/24 09:03:20;;;;;;;13.38;6.13;;;;;;;1.37;62.07;94636.44;5021554;28;20204;-72
2021/12/24 09:05:47;;;;;;;12.80;7.18;;;;;;;1.51;60.97;94622.53;5010779;28;20259;-72
2021/12/24 09:08:16;;;;;;;15.05;5.82;;;;;;;1.32;61.27;94652.47;5015693;28;20231;-71
2021/12/24 09:10:42;;;;;;;12.65;6.40;;;;;;;2.19;71.27;94612.91;5010117;28;20232;-70
2021/12/24 09:13:09;;;;;;;13.93;7.72;;;;;;;3.51;72.47;94623.44;5008935;28;20826;-70
2021/12/24 09:15:37;;;;;;;12.98;5.63;;;;;;;3.10;67.45;94616.84;5024251;28;20809;-71
2021/12/24 09:18:05;;;;;;;25.25;14.38;;;;;;;3.23;58.64;94600.13;5019169;28;20288;-73
2021/12/24 09:20:37;;;;;;;8.73;5.47;;;;;;;2.60;58.89;94605.44;5008007;28;20568;-73
2021/12/24 09:23:04;;;;;;;17.33;8.68;;;;;;;2.54;59.15;94603.09;5008240;28;20197;-74
2021/12/24 09:25:33;;;;;;;18.70;9.57;;;;;;;2.31;59.29;94609.94;5009385;28;20197;-72
2021/12/24 09:28:00;;;;;;;12.32;6.20;;;;;;;2.35;59.34;94589.56;5009649;28;20217;-72
2021/12/24 09:30:28;;;;;;;17.25;7.43;;;;;;;2.34;59.62;94593.31;5008777;28;20306;-75
2021/12/24 09:32:55;;;;;;;17.40;8.00;;;;;;;2.55;59.28;94605.50;5008278;28;20209;-73
2021/12/24 09:35:24;;;;;;;19.42;8.60;;;;;;;2.35;59.48;94594.91;5008621;28;20243;-73
2021/12/24 09:37:51;;;;;;;25.55;10.80;;;;;;;2.54;59.56;94601.22;5009956;28;20372;-74
2021/12/24 09:40:19;;;;;;;15.32;6.97;;;;;;;2.93;58.46;94568.28;5009196;28;20205;-71
2021/12/24 09:42:48;;;;;;;14.68;5.68;;;;;;;2.89;58.37;94580.63;5009315;28;20315;-72
2021/12/24 09:45:17;;;;;;;13.02;4.90;;;;;;;2.91;58.42;94565.09;5009823;28;20205;-73
2021/12/24 09:47:44;;;;;;;12.63;5.53;;;;;;;2.99;58.33;94583.25;5009229;28;20205;-72
2021/12/24 09:50:18;;;;;;;16.83;7.47;;;;;;;2.90;58.40;94574.19;5008806;28;20225;-73
2021/12/24 09:52:46;;;;;;;13.32;6.18;;;;;;;2.67;59.84;94568.50;5009489;28;20197;-73
2021/12/24 09:55:15;;;;;;;16.08;8.13;;;;;;;2.88;59.33;94565.66;5004768;28;20239;-73
2021/12/24 09:57:43;;;;;;;13.55;6.47;;;;;;;2.77;59.14;94560.41;5008982;28;20221;-73
2021/12/24 10:00:13;;;;;;;15.32;8.27;;;;;;;2.76;59.37;94566.81;5008924;28;20244;-73
2021/12/24 10:02:44;;;;;;;13.15;5.82;;;;;;;2.97;58.77;94564.78;5008777;28;20197;-74
2021/12/24 10:05:29;;;;;;;11.93;5.93;;;;;;;2.94;59.23;94548.50;5008886;28;20287;-73
2021/12/24 10:08:08;;;;;;;9.13;4.15;;;;;;;2.97;58.66;94542.59;5008686;28;20196;-73
2021/12/24 10:10:40;;;;;;;11.82;5.95;;;;;;;2.96;58.52;94522.25;5008394;28;20220;-73
2021/12/24 10:13:32;;;;;;;21.52;8.07;;;;;;;3.14;58.88;94524.22;5009239;28;20189;-72
2021/12/24 10:16:02;;;;;;;9.10;5.18;;;;;;;3.15;58.83;94526.59;5008977;28;20189;-73
2021/12/24 10:18:36;;;;;;;15.20;7.45;;;;;;;3.39;58.46;94529.31;5009147;28;20690;-74
2021/12/24 10:21:07;;;;;;;12.18;6.28;;;;;;;3.15;58.69;94517.78;5009155;28;20189;-72
2021/12/24 10:23:46;;;;;;;38.47;11.30;;;;;;;3.44;58.94;94515.84;5009039;28;20612;-73
2021/12/24 10:26:17;;;;;;;19.42;7.68;;;;;;;3.37;58.45;94520.75;5009201;28;20212;-73
2021/12/24 10:29:02;;;;;;;11.50;5.88;;;;;;;3.55;58.20;94490.53;5009133;28;20212;-73
2021/12/24 10:31:33;;;;;;;15.43;7.65;;;;;;;3.84;57.77;94493.13;5008979;28;20229;-73
2021/12/24 10:34:19;;;;;;;22.35;11.82;;;;;;;4.02;57.25;94493.44;5008483;28;20189;-74
2021/12/24 10:37:00;;;;;;;19.23;11.70;;;;;;;4.03;57.02;94487.78;5009185;28;20193;-73
2021/12/24 10:39:29;;;;;;;22.88;12.30;;;;;;;3.96;57.25;94476.63;5008894;28;20199;-73
2021/12/24 10:41:58;;;;;;;14.60;7.47;;;;;;;4.04;57.02;94481.34;5008409;28;20244;-73
2021/12/24 10:44:28;;;;;;;27.17;8.95;;;;;;;3.99;57.25;94478.72;5008920;28;20208;-73
2021/12/24 10:47:03;;;;;;;14.35;7.03;;;;;;;4.27;56.48;94475.09;5009264;28;20272;-73
2021/12/24 10:49:50;;;;;;;23.63;8.63;;;;;;;4.39;56.38;94481.88;5009139;28;20647;-73
2021/12/24 10:52:32;;;;;;;13.65;7.18;;;;;;;4.53;56.45;94462.06;5012575;28;20686;-73
2021/12/24 10:55:02;;;;;;;19.92;10.35;;;;;;;4.61;56.10;94453.38;5012749;28;20189;-72
2021/12/24 10:57:31;;;;;;;13.93;7.53;;;;;;;4.70;56.50;94440.06;5012313;28;20576;-72
2021/12/24 11:00:00;;;;;;;8.85;4.30;;;;;;;4.87;55.57;94434.94;5012497;28;20213;-73
2021/12/24 11:02:34;;;;;;;18.65;7.38;;;;;;;4.85;55.91;94430.94;5012188;28;20201;-74
2021/12/24 11:05:01;;;;;;;16.58;8.32;;;;;;;4.98;56.05;94422.91;5011333;28;20197;-73
2021/12/24 11:07:36;;;;;;;17.83;8.07;;;;;;;5.23;55.56;94426.19;5012388;28;20647;-73
2021/12/24 11:10:13;;;;;;;17.55;7.60;;;;;;;5.35;55.28;94419.22;5012025;28;20568;-73
2021/12/24 11:12:41;;;;;;;17.92;10.48;;;;;;;5.52;54.46;94397.13;5012548;28;20284;-73
2021/12/24 11:15:31;;;;;;;19.23;11.38;;;;;;;5.62;55.99;94413.03;5012038;28;20676;-73
2021/12/24 11:18:02;;;;;;;20.75;11.77;;;;;;;5.66;53.94;94407.84;5012320;28;20197;-74
2021/12/24 11:20:31;;;;;;;29.88;14.93;;;;;;;5.67;54.20;94388.75;5011927;28;20197;-73
2021/12/24 11:23:01;;;;;;;20.70;12.18;;;;;;;5.78;53.88;94396.56;5012005;28;20197;-73
2021/12/24 11:25:31;;;;;;;21.55;11.88;;;;;;;5.71;54.88;94391.63;5012263;28;20232;-73
2021/12/24 11:27:59;;;;;;;20.52;11.68;;;;;;;5.90;53.70;94386.09;5011950;28;20212;-73
2021/12/24 11:30:30;;;;;;;17.63;10.93;;;;;;;6.04;53.47;94386.84;5012182;28;20236;-74
2021/12/24 11:32:59;;;;;;;20.95;12.90;;;;;;;6.12;53.62;94378.06;5011731;28;20196;-73
2021/12/24 11:35:27;;;;;;;20.75;12.48;;;;;;;6.23;52.77;94374.03;5010985;28;20571;-74
2021/12/24 11:37:54;;;;;;;20.67;11.50;;;;;;;6.28;52.70;94371.22;5011962;28;20201;-74
2021/12/24 11:40:23;;;;;;;23.25;11.68;;;;;;;6.29;52.94;94378.16;5011359;28;20228;-73
2021/12/24 11:42:54;;;;;;;25.63;11.82;;;;;;;6.30;53.79;94374.38;5011898;28;20591;-73
2021/12/24 11:45:23;;;;;;;21.23;11.63;;;;;;;6.50;53.03;94377.69;5011712;28;20311;-73
2021/12/24 11:47:51;;;;;;;17.70;11.32;;;;;;;6.80;52.62;94387.66;5011381;28;20676;-73
2021/12/24 11:50:20;;;;;;;24.27;12.73;;;;;;;6.78;51.84;94384.50;5011688;28;20228;-74
2021/12/24 11:52:50;;;;;;;25.30;13.00;;;;;;;6.70;51.92;94377.16;5011511;28;20216;-73
2021/12/24 11:55:18;;;;;;;18.05;11.45;;;;;;;6.85;51.72;94379.44;5011626;28;20610;-73
2021/12/24 11:57:57;;;;;;;18.58;10.32;;;;;;;6.91;51.85;94372.81;5011193;28;20224;-74
2021/12/24 12:00:28;;;;;;;20.48;11.57;;;;;;;6.95;52.04;94391.84;5011541;28;20186;-73
2021/12/24 12:02:55;;;;;;;16.30;10.07;;;;;;;6.84;52.13;94391.31;5010449;28;20204;-74
2021/12/24 12:05:28;;;;;;;17.90;9.85;;;;;;;6.95;52.81;94381.09;5011163;28;20209;-73
2021/12/24 12:08:36;;;;;;;11.82;5.72;;;;;;;7.53;53.16;94380.78;5010713;28;20204;-73
2021/12/24 12:11:06;;;;;;;17.27;8.85;;;;;;;7.41;51.28;94381.38;4996969;28;20327;-73
2021/12/24 12:13:54;;;;;;;10.82;5.53;;;;;;;7.69;53.69;94376.53;5011303;28;20711;-73
2021/12/24 12:16:24;;;;;;;19.00;8.30;;;;;;;7.83;51.14;94371.78;5011028;28;20684;-73
2021/12/24 12:19:10;;;;;;;19.50;11.00;;;;;;;7.79;51.07;94373.50;5011110;28;20215;-73
2021/12/24 12:21:41;;;;;;;13.75;8.30;;;;;;;7.79;51.90;94365.44;5010777;28;20430;-73
2021/12/24 12:27:00;;;;;;;8.68;2.92;;;;;;;8.76;51.71;94346.13;5011156;28;20668;-73
2021/12/24 12:29:32;;;;;;;3.33;2.03;;;;;;;9.04;51.68;94344.59;5011085;28;20255;-73
2021/12/24 12:32:25;;;;;;;5.20;2.40;;;;;;;9.14;50.90;94344.25;5010728;28;20213;-73
2021/12/24 12:35:01;;;;;;;4.10;2.40;;;;;;;9.33;50.93;94334.94;5010574;28;20220;-73
2021/12/24 12:37:43;;;;;;;2.97;2.10;;;;;;;9.33;50.57;94324.13;5009657;28;20189;-74
2021/12/24 12:40:29;;;;;;;7.53;2.47;;;;;;;9.31;50.62;94321.75;5010794;28;20189;-73
2021/12/24 12:43:08;;;;;;;12.82;2.50;;;;;;;9.31;50.52;94321.75;5010643;28;20288;-73
2021/12/24 12:46:18;;;;;;;6.80;1.98;;;;;;;9.37;50.18;94311.53;5011051;28;20199;-73
2021/12/24 12:48:54;;;;;;;6.13;2.17;;;;;;;9.42;50.26;94305.97;4968644;28;20302;-72
2021/12/24 12:51:43;;;;;;;4.43;2.35;;;;;;;9.44;50.26;94314.50;4968487;28;20232;-73
2021/12/24 12:54:46;;;;;;;2.67;2.00;;;;;;;9.47;50.19;94324.66;4998775;28;20288;-73
2021/12/24 12:57:18;;;;;;;3.28;1.80;;;;;;;9.49;50.11;94311.63;4968566;28;20218;-74